Time;durP1;ratioP1;P1;durP2;ratioP2;P2;SDS_P1;SDS_P2;PMS_P1;PMS_P2;Temp;Humidity;BMP_temperature;BMP_pressure;BME280_temperature;BME280_humidity;BME280_pressure;Samples;Min_cycle;Max_cycle;Signal;HPM_P1;HPM_P2
2023/03/18 00:01:56;;;;;;;5.90;4.27;;;;;;;;;;4992246;28;20266;-26
2023/03/18 00:04:23;;;;;;;8.13;4.83;;;;;;;;;;4992937;28;20200;-27
2023/03/18 00:06:50;;;;;;;5.90;4.80;;;;;;;;;;4991171;28;20212;-27
2023/03/18 00:09:17;;;;;;;6.43;4.43;;;;;;;;;;4983856;28;20232;-28
2023/03/18 00:11:45;;;;;;;7.47;4.70;;;;;;;;;;4992249;28;20204;-27
2023/03/18 00:14:14;;;;;;;8.70;4.50;;;;;;;;;;4987718;28;20263;-26
2023/03/18 00:16:41;;;;;;;6.23;4.67;;;;;;;;;;4992205;28;20226;-25
2023/03/18 00:19:08;;;;;;;8.13;4.53;;;;;;;;;;4992973;28;20331;-26
2023/03/18 00:21:35;;;;;;;5.37;4.27;;;;;;;;;;4992708;28;20207;-27
2023/03/18 00:24:02;;;;;;;7.53;5.00;;;;;;;;;;4987194;28;20212;-26
2023/03/18 00:26:29;;;;;;;6.83;4.23;;;;;;;;;;4985078;28;20243;-25
2023/03/18 00:28:57;;;;;;;7.03;4.67;;;;;;;;;;4986163;28;20208;-28
2023/03/18 00:31:27;;;;;;;8.20;4.50;;;;;;;;;;4984051;28;20216;-24
2023/03/18 00:33:55;;;;;;;6.73;4.33;;;;;;;;;;4992287;28;20284;-26
2023/03/18 00:36:24;;;;;;;8.53;4.57;;;;;;;;;;4993016;28;20215;-23
2023/03/18 00:38:56;;;;;;;7.20;3.90;;;;;;;;;;4984850;28;20233;-23
2023/03/18 00:41:23;;;;;;;5.17;4.17;;;;;;;;;;4989240;28;20240;-27
2023/03/18 00:43:52;;;;;;;6.47;4.43;;;;;;;;;;4988182;28;20204;-22
2023/03/18 00:46:21;;;;;;;6.97;4.77;;;;;;;;;;4988339;28;20211;-27
2023/03/18 00:48:49;;;;;;;7.83;4.60;;;;;;;;;;4992116;28;20204;-27
2023/03/18 00:51:17;;;;;;;6.40;4.40;;;;;;;;;;4992902;28;20246;-25
2023/03/18 00:53:47;;;;;;;6.10;4.30;;;;;;;;;;4980887;28;20215;-24
2023/03/18 00:56:16;;;;;;;8.37;4.43;;;;;;;;;;4992051;28;20216;-25
2023/03/18 00:58:44;;;;;;;7.93;4.70;;;;;;;;;;4988975;28;20211;-24
2023/03/18 01:01:13;;;;;;;11.43;5.30;;;;;;;;;;4985665;28;20208;-27
2023/03/18 01:03:42;;;;;;;7.13;4.67;;;;;;;;;;4990613;28;20232;-26
2023/03/18 01:06:11;;;;;;;9.23;4.73;;;;;;;;;;4990520;28;20208;-24
2023/03/18 01:08:38;;;;;;;7.13;4.47;;;;;;;;;;4987142;28;20209;-27
2023/03/18 01:11:05;;;;;;;9.37;4.73;;;;;;;;;;4992470;28;20464;-29
2023/03/18 01:13:33;;;;;;;6.90;4.77;;;;;;;;;;4989549;28;20214;-28
2023/03/18 01:16:00;;;;;;;6.93;4.87;;;;;;;;;;4989865;28;20208;-23
2023/03/18 01:18:28;;;;;;;7.87;4.77;;;;;;;;;;4992116;28;20227;-25
2023/03/18 01:20:55;;;;;;;6.33;4.30;;;;;;;;;;4991045;28;20208;-26
2023/03/18 01:23:24;;;;;;;6.33;4.50;;;;;;;;;;4989420;28;20212;-25
2023/03/18 01:25:52;;;;;;;6.40;4.30;;;;;;;;;;4986418;28;20208;-26
2023/03/18 01:28:19;;;;;;;7.10;5.00;;;;;;;;;;4993078;28;20239;-26
2023/03/18 01:30:46;;;;;;;6.73;4.60;;;;;;;;;;5259339;22;20208;-27
2023/03/18 01:33:14;;;;;;;6.87;5.00;;;;;;;;;;5035456;28;20206;-28
2023/03/18 01:35:41;;;;;;;8.93;5.23;;;;;;;;;;5033119;28;20206;-27
2023/03/18 01:38:09;;;;;;;6.73;4.87;;;;;;;;;;5041336;28;20684;-29
2023/03/18 01:40:40;;;;;;;5.80;4.43;;;;;;;;;;5036409;28;20211;-30
2023/03/18 01:43:13;;;;;;;6.37;4.93;;;;;;;;;;5050640;28;20256;-28
2023/03/18 01:45:40;;;;;;;6.13;4.17;;;;;;;;;;5035095;28;20217;-29
2023/03/18 01:48:09;;;;;;;7.77;4.13;;;;;;;;;;5038901;28;20223;-30
2023/03/18 01:50:37;;;;;;;7.07;4.90;;;;;;;;;;5037412;28;20567;-27
2023/03/18 01:53:06;;;;;;;9.17;5.10;;;;;;;;;;5038855;28;20206;-28
2023/03/18 01:55:33;;;;;;;6.77;5.10;;;;;;;;;;5046887;28;20206;-28
2023/03/18 01:58:04;;;;;;;5.33;4.20;;;;;;;;;;5030561;28;20704;-32
2023/03/18 02:00:31;;;;;;;7.30;4.90;;;;;;;;;;5032803;28;20199;-32
2023/03/18 02:02:59;;;;;;;6.57;4.27;;;;;;;;;;5035081;28;20229;-28
2023/03/18 02:05:27;;;;;;;6.63;4.80;;;;;;;;;;5039125;28;20650;-29
2023/03/18 02:07:54;;;;;;;7.47;4.73;;;;;;;;;;5050487;28;20226;-27
2023/03/18 02:10:23;;;;;;;6.93;4.97;;;;;;;;;;5045165;28;20218;-29
2023/03/18 02:12:51;;;;;;;7.87;4.80;;;;;;;;;;5035668;28;20225;-31
2023/03/18 02:15:22;;;;;;;5.50;4.60;;;;;;;;;;5028659;28;20214;-31
2023/03/18 02:17:51;;;;;;;6.33;4.57;;;;;;;;;;5046381;28;20703;-31
2023/03/18 02:20:25;;;;;;;6.07;4.10;;;;;;;;;;5034727;28;20194;-28
2023/03/18 02:22:53;;;;;;;6.30;4.03;;;;;;;;;;5034968;28;20229;-28
2023/03/18 02:25:26;;;;;;;6.10;3.90;;;;;;;;;;5045205;28;20201;-30
2023/03/18 02:27:58;;;;;;;8.10;3.80;;;;;;;;;;5038292;28;20222;-28
2023/03/18 02:30:27;;;;;;;4.83;4.00;;;;;;;;;;5038260;28;20226;-29
2023/03/18 02:32:55;;;;;;;7.20;3.53;;;;;;;;;;5044109;28;20214;-31
2023/03/18 02:35:23;;;;;;;7.57;4.60;;;;;;;;;;5036006;28;20237;-29
2023/03/18 02:37:50;;;;;;;5.87;4.53;;;;;;;;;;5041286;28;20364;-29
2023/03/18 02:40:18;;;;;;;6.17;4.40;;;;;;;;;;5041442;28;20212;-32
2023/03/18 02:42:46;;;;;;;10.80;4.37;;;;;;;;;;5052383;28;20293;-29
2023/03/18 02:45:20;;;;;;;8.07;4.57;;;;;;;;;;5037503;28;20202;-30
2023/03/18 02:47:47;;;;;;;7.10;4.50;;;;;;;;;;5051486;28;20224;-32
2023/03/18 02:50:14;;;;;;;4.53;4.00;;;;;;;;;;5053002;28;20217;-29
2023/03/18 02:52:42;;;;;;;5.57;4.00;;;;;;;;;;5046417;28;20237;-30
2023/03/18 02:55:09;;;;;;;6.40;4.00;;;;;;;;;;5032805;28;20273;-32
2023/03/18 02:57:36;;;;;;;8.73;4.50;;;;;;;;;;5029417;28;20226;-28
2023/03/18 03:00:04;;;;;;;9.80;3.93;;;;;;;;;;5035012;28;20587;-31
2023/03/18 03:02:33;;;;;;;5.73;4.40;;;;;;;;;;5039565;28;20210;-29
2023/03/18 03:05:00;;;;;;;6.60;4.43;;;;;;;;;;5046596;28;20659;-29
2023/03/18 03:07:27;;;;;;;7.47;4.97;;;;;;;;;;5047388;28;20254;-28
2023/03/18 03:09:55;;;;;;;6.07;4.67;;;;;;;;;;5045450;28;20210;-31
2023/03/18 03:12:22;;;;;;;4.67;3.93;;;;;;;;;;5053091;28;20699;-31
2023/03/18 03:14:50;;;;;;;9.17;4.57;;;;;;;;;;5044940;28;20220;-28
2023/03/18 03:17:17;;;;;;;4.80;4.00;;;;;;;;;;5044335;28;20320;-29
2023/03/18 03:19:46;;;;;;;6.17;4.90;;;;;;;;;;5033094;28;20209;-27
2023/03/18 03:22:13;;;;;;;6.67;4.43;;;;;;;;;;5032325;28;20272;-26
2023/03/18 03:24:40;;;;;;;6.77;4.53;;;;;;;;;;5045505;28;20198;-29
2023/03/18 03:27:07;;;;;;;6.77;4.50;;;;;;;;;;5046492;28;20228;-29
2023/03/18 03:29:34;;;;;;;5.80;3.87;;;;;;;;;;5042922;28;20210;-31
2023/03/18 03:32:01;;;;;;;8.07;3.90;;;;;;;;;;5045950;28;20232;-30
2023/03/18 03:34:29;;;;;;;5.27;3.87;;;;;;;;;;5052303;28;20202;-27
2023/03/18 03:36:57;;;;;;;4.23;3.67;;;;;;;;;;5049136;28;20233;-30
2023/03/18 03:39:24;;;;;;;4.43;3.73;;;;;;;;;;5047641;28;20209;-28
2023/03/18 03:41:51;;;;;;;5.73;4.20;;;;;;;;;;5040986;28;20191;-29
2023/03/18 03:44:19;;;;;;;5.73;4.37;;;;;;;;;;5031032;28;20218;-29
2023/03/18 03:46:47;;;;;;;7.57;4.77;;;;;;;;;;5051812;28;20217;-27
2023/03/18 03:49:14;;;;;;;6.73;4.03;;;;;;;;;;5044278;28;20256;-28
2023/03/18 03:51:41;;;;;;;4.97;3.70;;;;;;;;;;5052773;28;20229;-29
2023/03/18 03:54:11;;;;;;;6.17;4.47;;;;;;;;;;5041641;28;20660;-28
2023/03/18 03:56:39;;;;;;;4.93;3.87;;;;;;;;;;5041692;28;20326;-29
2023/03/18 03:59:06;;;;;;;6.53;4.20;;;;;;;;;;5031065;28;20672;-29
2023/03/18 04:01:34;;;;;;;5.23;3.63;;;;;;;;;;5040019;28;20620;-31
2023/03/18 04:04:02;;;;;;;4.40;3.87;;;;;;;;;;5037075;28;20198;-32
2023/03/18 04:06:30;;;;;;;5.27;3.80;;;;;;;;;;5049402;28;20288;-27
2023/03/18 04:08:57;;;;;;;5.73;4.10;;;;;;;;;;5041436;28;20577;-29
2023/03/18 04:11:25;;;;;;;5.07;4.10;;;;;;;;;;5040284;28;20214;-27
2023/03/18 04:13:53;;;;;;;7.07;4.40;;;;;;;;;;5044137;28;20386;-26
2023/03/18 04:16:20;;;;;;;5.70;4.50;;;;;;;;;;5040558;28;20207;-32
2023/03/18 04:18:47;;;;;;;6.57;4.27;;;;;;;;;;5042957;28;20213;-26
2023/03/18 04:21:15;;;;;;;10.00;4.23;;;;;;;;;;5051983;28;20198;-27
2023/03/18 04:23:42;;;;;;;5.13;3.60;;;;;;;;;;5047132;28;20683;-28
2023/03/18 04:26:10;;;;;;;5.50;4.10;;;;;;;;;;5033248;28;20213;-28
2023/03/18 04:28:39;;;;;;;5.67;4.03;;;;;;;;;;5045648;28;20197;-30
2023/03/18 04:31:06;;;;;;;6.43;4.43;;;;;;;;;;5035670;28;20226;-29
2023/03/18 04:33:33;;;;;;;6.23;4.00;;;;;;;;;;5039099;28;20207;-27
2023/03/18 04:36:00;;;;;;;6.17;4.03;;;;;;;;;;5031991;28;20207;-29
2023/03/18 04:38:28;;;;;;;5.07;3.57;;;;;;;;;;5041414;28;20248;-30
2023/03/18 04:40:55;;;;;;;4.77;3.83;;;;;;;;;;5043761;28;20205;-29
2023/03/18 04:43:22;;;;;;;5.20;3.87;;;;;;;;;;5033888;28;20198;-29
2023/03/18 04:45:51;;;;;;;3.90;3.47;;;;;;;;;;5031315;28;20214;-28
2023/03/18 04:48:19;;;;;;;6.27;3.77;;;;;;;;;;5046707;28;20590;-28
2023/03/18 04:50:46;;;;;;;8.83;4.40;;;;;;;;;;5050721;28;20225;-26
2023/03/18 04:53:13;;;;;;;5.17;4.10;;;;;;;;;;5045456;28;20206;-29
2023/03/18 04:55:40;;;;;;;7.53;4.53;;;;;;;;;;5036491;28;20203;-29
2023/03/18 04:58:08;;;;;;;7.10;4.00;;;;;;;;;;5050901;28;20225;-31
2023/03/18 05:00:35;;;;;;;4.20;3.73;;;;;;;;;;5036586;28;20333;-27
2023/03/18 05:03:04;;;;;;;7.07;4.60;;;;;;;;;;5050709;28;20198;-28
2023/03/18 05:05:31;;;;;;;5.43;4.00;;;;;;;;;;5050823;28;20256;-29
2023/03/18 05:07:58;;;;;;;5.83;4.23;;;;;;;;;;5042550;28;20230;-31
2023/03/18 05:10:26;;;;;;;5.20;4.37;;;;;;;;;;5050370;28;20218;-31
2023/03/18 05:12:53;;;;;;;6.60;4.20;;;;;;;;;;5050811;28;20619;-27
2023/03/18 05:15:20;;;;;;;6.40;4.50;;;;;;;;;;5039222;28;20225;-31
2023/03/18 05:17:47;;;;;;;4.73;3.70;;;;;;;;;;5038327;28;20533;-31
2023/03/18 05:20:16;;;;;;;4.83;3.93;;;;;;;;;;5046184;28;20205;-29
2023/03/18 05:22:43;;;;;;;4.30;3.90;;;;;;;;;;5046430;28;20251;-28
2023/03/18 05:25:11;;;;;;;6.20;4.77;;;;;;;;;;5043432;28;20210;-30
2023/03/18 05:27:38;;;;;;;5.27;3.57;;;;;;;;;;5031719;28;20235;-28
2023/03/18 05:30:06;;;;;;;5.10;3.70;;;;;;;;;;5039482;28;20217;-27
2023/03/18 05:32:33;;;;;;;6.70;3.70;;;;;;;;;;5039230;28;20239;-30
2023/03/18 05:35:00;;;;;;;7.70;4.33;;;;;;;;;;5043605;28;20567;-29
2023/03/18 05:37:29;;;;;;;7.30;4.20;;;;;;;;;;5046848;28;20631;-26
2023/03/18 05:39:56;;;;;;;5.40;3.77;;;;;;;;;;5037394;28;20245;-31
2023/03/18 05:42:24;;;;;;;5.60;4.03;;;;;;;;;;5041737;28;20683;-31
2023/03/18 05:44:51;;;;;;;5.77;3.43;;;;;;;;;;5045400;28;20206;-29
2023/03/18 05:47:18;;;;;;;6.37;4.80;;;;;;;;;;5050844;28;20597;-29
2023/03/18 05:49:45;;;;;;;4.67;3.80;;;;;;;;;;5042862;28;20214;-30
2023/03/18 05:52:12;;;;;;;4.60;3.90;;;;;;;;;;5033976;28;20704;-29
2023/03/18 05:54:41;;;;;;;5.40;4.33;;;;;;;;;;5036842;28;20238;-27
2023/03/18 05:57:08;;;;;;;3.93;3.47;;;;;;;;;;5047271;28;20232;-27
2023/03/18 05:59:36;;;;;;;7.43;4.03;;;;;;;;;;5044738;28;20211;-27
2023/03/18 06:02:03;;;;;;;5.57;4.10;;;;;;;;;;5052197;28;20206;-32
2023/03/18 06:04:30;;;;;;;5.07;3.87;;;;;;;;;;5037209;28;20207;-31
2023/03/18 06:06:58;;;;;;;5.70;3.57;;;;;;;;;;5050331;28;20905;-29
2023/03/18 06:09:26;;;;;;;4.37;3.43;;;;;;;;;;5040850;28;20217;-32
2023/03/18 06:11:54;;;;;;;5.00;3.50;;;;;;;;;;5042553;28;20229;-29
2023/03/18 06:14:21;;;;;;;4.93;3.93;;;;;;;;;;5040650;28;20202;-27
2023/03/18 06:16:48;;;;;;;6.00;3.90;;;;;;;;;;5049360;28;20692;-27
2023/03/18 06:19:16;;;;;;;6.13;3.80;;;;;;;;;;5034182;28;20206;-30
2023/03/18 06:21:43;;;;;;;5.57;3.70;;;;;;;;;;5038112;28;20198;-31
2023/03/18 06:24:12;;;;;;;5.10;4.00;;;;;;;;;;5039283;28;20211;-29
2023/03/18 06:26:39;;;;;;;7.80;3.90;;;;;;;;;;5052509;28;20233;-29
2023/03/18 06:29:07;;;;;;;4.33;3.80;;;;;;;;;;5048165;28;20694;-27
2023/03/18 06:31:36;;;;;;;4.87;4.03;;;;;;;;;;5041744;28;20714;-30
2023/03/18 06:34:03;;;;;;;6.60;3.47;;;;;;;;;;5044194;28;20719;-25
2023/03/18 06:36:32;;;;;;;4.47;4.07;;;;;;;;;;5051725;28;20222;-27
2023/03/18 06:38:59;;;;;;;4.13;3.23;;;;;;;;;;5043077;28;20210;-29
2023/03/18 06:41:26;;;;;;;6.57;4.10;;;;;;;;;;5041953;28;20194;-31
2023/03/18 06:43:54;;;;;;;4.70;3.50;;;;;;;;;;5044001;28;20209;-29
2023/03/18 06:46:22;;;;;;;6.97;4.37;;;;;;;;;;5051785;28;20210;-31
2023/03/18 06:48:49;;;;;;;7.90;4.37;;;;;;;;;;5040231;28;20198;-26
2023/03/18 06:51:16;;;;;;;5.80;4.00;;;;;;;;;;5032502;28;20222;-29
2023/03/18 06:53:48;;;;;;;5.70;4.03;;;;;;;;;;5038667;28;20202;-32
2023/03/18 06:56:15;;;;;;;3.80;3.40;;;;;;;;;;5044808;28;20202;-29
2023/03/18 06:58:42;;;;;;;4.17;3.77;;;;;;;;;;5048041;28;20297;-29
2023/03/18 07:01:11;;;;;;;6.17;3.80;;;;;;;;;;5048181;28;20210;-26
2023/03/18 07:03:39;;;;;;;6.23;4.00;;;;;;;;;;5035398;28;20203;-27
2023/03/18 07:06:10;;;;;;;7.50;4.13;;;;;;;;;;5040446;28;20211;-27
2023/03/18 07:08:37;;;;;;;6.23;4.10;;;;;;;;;;5044029;28;20637;-27
2023/03/18 07:11:05;;;;;;;6.63;4.43;;;;;;;;;;5045127;28;20265;-27
2023/03/18 07:13:33;;;;;;;7.07;4.23;;;;;;;;;;5030646;28;20207;-28
2023/03/18 07:16:00;;;;;;;4.63;3.70;;;;;;;;;;5045606;28;20256;-29
2023/03/18 07:18:36;;;;;;;4.27;3.60;;;;;;;;;;5042259;28;20221;-30
2023/03/18 07:21:05;;;;;;;7.20;4.17;;;;;;;;;;5032588;28;20652;-28
2023/03/18 07:23:33;;;;;;;4.73;4.03;;;;;;;;;;5031621;28;20202;-26
2023/03/18 07:26:00;;;;;;;5.47;4.33;;;;;;;;;;5044416;28;20645;-27
2023/03/18 07:28:27;;;;;;;5.87;4.10;;;;;;;;;;5041435;28;20232;-28
2023/03/18 07:30:54;;;;;;;4.90;3.87;;;;;;;;;;5047526;28;20305;-29
2023/03/18 07:38:27;;;;;;;4.60;3.83;;;;;;;;;;5039629;28;20284;-30
2023/03/18 07:40:55;;;;;;;5.67;3.80;;;;;;;;;;5039991;28;20205;-31
2023/03/18 07:43:22;;;;;;;5.50;4.13;;;;;;;;;;5040517;28;20202;-30
2023/03/18 07:45:49;;;;;;;4.40;3.07;;;;;;;;;;5039370;28;20202;-30
2023/03/18 07:48:16;;;;;;;4.50;3.50;;;;;;;;;;5048248;28;20240;-28
2023/03/18 07:50:43;;;;;;;4.10;3.70;;;;;;;;;;5032904;28;20245;-32
2023/03/18 07:53:11;;;;;;;3.20;3.00;;;;;;;;;;5031188;28;20325;-32
2023/03/18 07:55:40;;;;;;;4.33;3.50;;;;;;;;;;5042074;28;20206;-30
2023/03/18 07:58:08;;;;;;;4.63;3.33;;;;;;;;;;5041420;28;20258;-33
2023/03/18 08:00:35;;;;;;;5.77;3.60;;;;;;;;;;5043644;28;20209;-31
2023/03/18 08:03:02;;;;;;;10.30;3.80;;;;;;;;;;5039998;28;20297;-30
2023/03/18 08:05:30;;;;;;;4.73;4.17;;;;;;;;;;5039811;28;20229;-30
2023/03/18 08:07:58;;;;;;;4.37;3.10;;;;;;;;;;5041614;28;20246;-31
2023/03/18 08:10:25;;;;;;;5.23;3.70;;;;;;;;;;5045438;28;20233;-30
2023/03/18 08:12:54;;;;;;;4.03;3.23;;;;;;;;;;5043260;28;20222;-27
2023/03/18 08:15:21;;;;;;;6.07;3.50;;;;;;;;;;5035193;28;20593;-31
2023/03/18 08:17:48;;;;;;;4.50;3.60;;;;;;;;;;5039832;28;20260;-29
2023/03/18 08:20:15;;;;;;;3.77;3.10;;;;;;;;;;5047290;28;20202;-27
2023/03/18 08:22:44;;;;;;;6.93;4.10;;;;;;;;;;5048636;28;20199;-31
2023/03/18 08:25:12;;;;;;;4.93;3.50;;;;;;;;;;5037800;28;20206;-33
2023/03/18 08:27:39;;;;;;;3.83;3.20;;;;;;;;;;5043465;28;20306;-30
2023/03/18 08:30:09;;;;;;;3.63;3.33;;;;;;;;;;5043228;28;20435;-35
2023/03/18 08:32:36;;;;;;;5.60;3.90;;;;;;;;;;5038309;28;20238;-29
2023/03/18 08:35:04;;;;;;;4.87;3.80;;;;;;;;;;5051895;28;20234;-30
2023/03/18 08:37:31;;;;;;;7.57;3.80;;;;;;;;;;5035741;28;20238;-27
2023/03/18 08:39:59;;;;;;;4.83;3.93;;;;;;;;;;5042884;28;20207;-33
2023/03/18 08:42:26;;;;;;;6.57;3.43;;;;;;;;;;5040537;28;20211;-30
2023/03/18 08:44:53;;;;;;;7.23;3.80;;;;;;;;;;5033911;28;20216;-31
2023/03/18 08:47:23;;;;;;;6.30;3.60;;;;;;;;;;5047581;28;20337;-28
2023/03/18 08:49:51;;;;;;;6.80;3.40;;;;;;;;;;5035997;28;20252;-33
2023/03/18 08:52:18;;;;;;;4.73;2.97;;;;;;;;;;5037804;28;20312;-29
2023/03/18 08:54:46;;;;;;;5.40;3.40;;;;;;;;;;5038194;28;20201;-28
2023/03/18 08:57:14;;;;;;;7.50;3.20;;;;;;;;;;5031769;28;20230;-29
2023/03/18 08:59:41;;;;;;;4.33;2.07;;;;;;;;;;5028072;28;20218;-29
2023/03/18 09:02:13;;;;;;;2.93;2.33;;;;;;;;;;5037700;28;20219;-34
2023/03/18 09:04:42;;;;;;;5.97;2.10;;;;;;;;;;5041673;28;20206;-28
2023/03/18 09:07:09;;;;;;;4.43;2.37;;;;;;;;;;5043073;28;20546;-30
2023/03/18 09:09:36;;;;;;;2.37;2.17;;;;;;;;;;5036823;28;20210;-30
2023/03/18 09:12:04;;;;;;;3.03;2.27;;;;;;;;;;5038618;28;20234;-28
2023/03/18 09:14:31;;;;;;;3.73;2.20;;;;;;;;;;5030495;28;20301;-31
2023/03/18 09:16:59;;;;;;;5.07;2.37;;;;;;;;;;5038252;28;20234;-30
2023/03/18 09:19:26;;;;;;;2.23;2.03;;;;;;;;;;5038865;28;20253;-31
2023/03/18 09:21:55;;;;;;;3.80;2.00;;;;;;;;;;5030230;28;20216;-34
2023/03/18 09:24:22;;;;;;;3.10;2.03;;;;;;;;;;5029968;28;20293;-30
2023/03/18 09:26:49;;;;;;;5.93;1.90;;;;;;;;;;5043182;28;20237;-31
2023/03/18 09:29:16;;;;;;;3.10;2.00;;;;;;;;;;5042530;28;20213;-31
2023/03/18 09:31:44;;;;;;;3.30;2.13;;;;;;;;;;5040396;28;20203;-28
2023/03/18 09:34:12;;;;;;;8.10;2.20;;;;;;;;;;5038304;28;20194;-33
2023/03/18 09:36:39;;;;;;;2.10;1.77;;;;;;;;;;5030366;28;20234;-29
2023/03/18 09:39:08;;;;;;;3.80;1.57;;;;;;;;;;5032718;28;20302;-30
2023/03/18 09:41:40;;;;;;;4.17;1.80;;;;;;;;;;5033480;28;20677;-27
2023/03/18 09:44:13;;;;;;;4.13;1.80;;;;;;;;;;5042015;28;20202;-30
2023/03/18 09:46:49;;;;;;;2.97;1.67;;;;;;;;;;5042962;28;20223;-33
2023/03/18 09:49:26;;;;;;;2.90;1.60;;;;;;;;;;5051173;28;20202;-30
2023/03/18 09:51:58;;;;;;;2.43;1.63;;;;;;;;;;5046499;28;20212;-31
2023/03/18 09:54:32;;;;;;;4.43;1.77;;;;;;;;;;5049301;28;20211;-33
2023/03/18 09:56:59;;;;;;;2.47;1.40;;;;;;;;;;5030409;28;20231;-30
2023/03/18 09:59:30;;;;;;;1.30;1.20;;;;;;;;;;5027741;28;20220;-30
2023/03/18 10:01:58;;;;;;;1.73;0.97;;;;;;;;;;5035511;28;20217;-33
2023/03/18 10:04:29;;;;;;;3.00;1.20;;;;;;;;;;5049911;28;20205;-27
2023/03/18 10:06:58;;;;;;;2.10;0.90;;;;;;;;;;5047616;28;20228;-31
2023/03/18 10:09:29;;;;;;;1.63;0.77;;;;;;;;;;5037195;28;20207;-30
2023/03/18 10:12:00;;;;;;;2.00;1.00;;;;;;;;;;5037949;28;20208;-30
2023/03/18 10:14:36;;;;;;;2.80;1.00;;;;;;;;;;5031260;28;20203;-32
2023/03/18 10:17:09;;;;;;;1.23;0.90;;;;;;;;;;5036892;28;20231;-31
2023/03/18 10:19:37;;;;;;;0.73;0.70;;;;;;;;;;5048689;28;20217;-31
2023/03/18 10:22:10;;;;;;;1.53;1.00;;;;;;;;;;5041338;28;20305;-36
2023/03/18 10:24:43;;;;;;;1.33;0.87;;;;;;;;;;5047427;28;20263;-29
2023/03/18 10:27:15;;;;;;;1.27;1.10;;;;;;;;;;5029858;28;20715;-34
2023/03/18 10:29:45;;;;;;;0.90;0.80;;;;;;;;;;5033117;28;20306;-33
2023/03/18 10:32:17;;;;;;;2.00;0.80;;;;;;;;;;5036227;28;20297;-29
2023/03/18 10:34:50;;;;;;;2.30;0.90;;;;;;;;;;5050080;28;20280;-30
2023/03/18 10:37:19;;;;;;;2.00;0.93;;;;;;;;;;5050418;28;20257;-32
2023/03/18 10:39:49;;;;;;;1.90;1.07;;;;;;;;;;5040615;28;20205;-29
2023/03/18 10:42:19;;;;;;;3.57;0.60;;;;;;;;;;5032756;28;20207;-32
2023/03/18 10:44:47;;;;;;;2.30;0.90;;;;;;;;;;5036087;28;20298;-33
2023/03/18 10:47:18;;;;;;;1.50;1.00;;;;;;;;;;5029554;28;20227;-29
2023/03/18 10:49:49;;;;;;;1.00;0.70;;;;;;;;;;5036659;28;20230;-28
2023/03/18 10:52:20;;;;;;;2.70;0.80;;;;;;;;;;5031124;28;20251;-31
2023/03/18 10:54:51;;;;;;;1.93;0.73;;;;;;;;;;5032549;28;20218;-31
2023/03/18 10:57:20;;;;;;;2.63;1.00;;;;;;;;;;5040248;28;20223;-27
2023/03/18 10:59:47;;;;;;;1.47;0.60;;;;;;;;;;5035034;28;20252;-31
2023/03/18 11:02:18;;;;;;;2.27;0.63;;;;;;;;;;5039150;28;20202;-32
2023/03/18 11:04:48;;;;;;;1.30;0.87;;;;;;;;;;5049738;28;20207;-30
2023/03/18 11:07:18;;;;;;;2.10;0.83;;;;;;;;;;5036168;28;20222;-30
2023/03/18 11:09:45;;;;;;;1.23;0.63;;;;;;;;;;5034348;28;20202;-33
2023/03/18 11:12:17;;;;;;;0.97;0.87;;;;;;;;;;5034794;28;20254;-34
2023/03/18 11:14:48;;;;;;;2.73;0.80;;;;;;;;;;5033633;28;20230;-31
2023/03/18 11:17:20;;;;;;;1.63;1.00;;;;;;;;;;5042336;28;20227;-31
2023/03/18 11:19:48;;;;;;;2.30;1.07;;;;;;;;;;5029588;28;20282;-31
2023/03/18 11:22:19;;;;;;;2.37;0.90;;;;;;;;;;5031633;28;20212;-33
2023/03/18 11:24:47;;;;;;;3.27;0.67;;;;;;;;;;5044085;28;20230;-31
2023/03/18 11:27:29;;;;;;;1.93;0.80;;;;;;;;;;5049574;28;20257;-32
2023/03/18 11:30:00;;;;;;;1.30;1.20;;;;;;;;;;5046535;28;20202;-32
2023/03/18 11:32:28;;;;;;;1.90;0.73;;;;;;;;;;5052630;28;20203;-36
2023/03/18 11:34:57;;;;;;;1.83;0.73;;;;;;;;;;5034112;28;20256;-33
2023/03/18 11:37:27;;;;;;;0.93;0.73;;;;;;;;;;5042987;28;20311;-31
2023/03/18 11:40:06;;;;;;;0.70;0.70;;;;;;;;;;5042648;28;20216;-33
2023/03/18 11:42:35;;;;;;;2.00;1.20;;;;;;;;;;5049964;28;20204;-31
2023/03/18 11:45:04;;;;;;;1.80;0.90;;;;;;;;;;5032155;28;20211;-32
2023/03/18 11:47:33;;;;;;;2.63;1.00;;;;;;;;;;5038068;28;20229;-35
2023/03/18 11:50:03;;;;;;;1.27;0.90;;;;;;;;;;5046399;28;20260;-27
2023/03/18 11:52:34;;;;;;;6.80;1.17;;;;;;;;;;5049220;28;20206;-31
2023/03/18 11:55:05;;;;;;;2.00;0.93;;;;;;;;;;5046991;28;20289;-30
2023/03/18 11:57:39;;;;;;;1.53;0.80;;;;;;;;;;5049220;28;20222;-26
2023/03/18 12:00:24;;;;;;;1.00;0.80;;;;;;;;;;5042311;28;20210;-31
2023/03/18 12:03:02;;;;;;;2.57;1.20;;;;;;;;;;5052203;28;20212;-28
2023/03/18 12:05:42;;;;;;;1.03;0.80;;;;;;;;;;5053301;28;20273;-33
2023/03/18 12:08:13;;;;;;;2.13;0.70;;;;;;;;;;5047140;28;20230;-29
2023/03/18 12:10:47;;;;;;;1.73;0.90;;;;;;;;;;5044734;28;20263;-31
2023/03/18 12:13:22;;;;;;;0.80;0.80;;;;;;;;;;5052533;28;20517;-29
2023/03/18 12:15:52;;;;;;;1.00;0.70;;;;;;;;;;5045527;28;20209;-29
2023/03/18 12:18:24;;;;;;;1.53;0.87;;;;;;;;;;5048083;28;20237;-31
2023/03/18 12:20:52;;;;;;;2.00;1.13;;;;;;;;;;5033697;28;20208;-27
2023/03/18 12:23:38;;;;;;;1.47;0.70;;;;;;;;;;5032188;28;20332;-31
2023/03/18 12:26:07;;;;;;;1.37;0.87;;;;;;;;;;5037997;28;20203;-29
2023/03/18 12:28:48;;;;;;;1.17;0.80;;;;;;;;;;5049583;28;20202;-32
2023/03/18 12:31:42;;;;;;;1.73;0.80;;;;;;;;;;5033183;28;20234;-30
2023/03/18 12:34:16;;;;;;;1.00;0.90;;;;;;;;;;5005660;28;20230;-30
2023/03/18 12:36:53;;;;;;;2.00;0.70;;;;;;;;;;5034333;28;20240;-29
2023/03/18 12:39:30;;;;;;;2.03;0.80;;;;;;;;;;5035815;28;20206;-33
2023/03/18 12:42:01;;;;;;;1.27;1.00;;;;;;;;;;5040134;28;20207;-29
2023/03/18 12:44:35;;;;;;;1.10;1.00;;;;;;;;;;5037053;28;20216;-28
2023/03/18 12:47:05;;;;;;;1.90;0.80;;;;;;;;;;5045771;28;20255;-28
2023/03/18 12:49:35;;;;;;;0.80;0.80;;;;;;;;;;5047329;28;20212;-32
2023/03/18 12:52:03;;;;;;;2.20;0.80;;;;;;;;;;5040140;28;20210;-31
2023/03/18 12:54:31;;;;;;;0.90;0.90;;;;;;;;;;5040859;28;20223;-30
2023/03/18 12:57:01;;;;;;;2.13;0.80;;;;;;;;;;5044390;28;20230;-29
2023/03/18 12:59:32;;;;;;;0.90;0.83;;;;;;;;;;5042462;28;20236;-32
2023/03/18 13:02:10;;;;;;;1.00;0.80;;;;;;;;;;5042052;28;20209;-27
2023/03/18 13:04:38;;;;;;;1.07;0.97;;;;;;;;;;5044863;28;20637;-33
2023/03/18 13:07:13;;;;;;;0.87;0.80;;;;;;;;;;5052869;28;20226;-29
2023/03/18 13:09:44;;;;;;;1.97;1.53;;;;;;;;;;5035218;28;20224;-27
2023/03/18 13:12:13;;;;;;;1.60;0.80;;;;;;;;;;5040891;28;20264;-29
2023/03/18 13:14:45;;;;;;;1.73;1.00;;;;;;;;;;5037448;28;20237;-36
2023/03/18 13:17:14;;;;;;;3.87;1.20;;;;;;;;;;5043171;28;20224;-33
2023/03/18 13:19:42;;;;;;;1.53;0.90;;;;;;;;;;5051259;28;20212;-36
2023/03/18 13:22:19;;;;;;;1.90;0.87;;;;;;;;;;5034137;28;20224;-34
2023/03/18 13:24:59;;;;;;;0.60;0.60;;;;;;;;;;5034507;28;20252;-30
2023/03/18 13:27:38;;;;;;;1.13;1.03;;;;;;;;;;5035554;28;20223;-36
2023/03/18 13:30:11;;;;;;;1.97;0.77;;;;;;;;;;5037929;28;20277;-30
2023/03/18 13:32:51;;;;;;;1.67;1.10;;;;;;;;;;5044524;28;20198;-35
2023/03/18 13:35:27;;;;;;;1.80;1.10;;;;;;;;;;5078523;22;20226;-92
2023/03/18 13:38:08;;;;;;;1.67;0.80;;;;;;;;;;5045522;28;20208;-91
2023/03/18 13:41:05;;;;;;;2.07;0.90;;;;;;;;;;5052684;28;20190;-90
2023/03/18 13:43:34;;;;;;;0.70;0.70;;;;;;;;;;5005800;28;21108;-90
2023/03/18 13:46:02;;;;;;;1.10;0.93;;;;;;;;;;5031630;28;20214;-90
2023/03/18 13:48:32;;;;;;;1.73;0.80;;;;;;;;;;5051289;28;20206;-90
2023/03/18 13:51:00;;;;;;;3.07;0.90;;;;;;;;;;5032807;28;20226;-90
2023/03/18 13:53:29;;;;;;;2.73;1.33;;;;;;;;;;5033158;28;20301;-91
2023/03/18 13:56:05;;;;;;;0.90;0.90;;;;;;;;;;5037599;28;20561;-90
2023/03/18 13:58:34;;;;;;;0.70;0.70;;;;;;;;;;5048718;28;20202;-90
2023/03/18 14:01:20;;;;;;;4.10;0.90;;;;;;;;;;5031387;28;20210;-90
2023/03/18 14:03:55;;;;;;;2.53;1.40;;;;;;;;;;5037253;28;20226;-90
2023/03/18 14:06:25;;;;;;;3.13;2.17;;;;;;;;;;5048731;28;20208;-91
2023/03/18 14:08:52;;;;;;;1.47;0.90;;;;;;;;;;5041884;28;20261;-91
2023/03/18 14:11:50;;;;;;;2.57;0.90;;;;;;;;;;5032327;28;20853;-90
2023/03/18 14:14:36;;;;;;;4.60;2.10;;;;;;;;;;5032923;28;20696;-91
2023/03/18 14:17:04;;;;;;;1.67;1.00;;;;;;;;;;5046216;28;20297;-91
2023/03/18 14:19:33;;;;;;;3.97;1.60;;;;;;;;;;5043585;28;20206;-91
2023/03/18 14:22:06;;;;;;;2.10;0.83;;;;;;;;;;5051080;28;20230;-93
2023/03/18 14:24:33;;;;;;;0.90;0.70;;;;;;;;;;5035097;28;20223;-91
2023/03/18 14:27:16;;;;;;;0.93;0.83;;;;;;;;;;5044511;28;20213;-91
2023/03/18 14:29:45;;;;;;;1.60;0.63;;;;;;;;;;5047820;28;20287;-91
2023/03/18 14:32:27;;;;;;;2.30;1.00;;;;;;;;;;5037989;28;20209;-91
2023/03/18 14:34:57;;;;;;;10.47;3.53;;;;;;;;;;5044241;28;20226;-91
2023/03/18 14:37:26;;;;;;;2.97;1.33;;;;;;;;;;5048580;28;20213;-91
2023/03/18 14:40:04;;;;;;;5.40;2.53;;;;;;;;;;5033209;28;20238;-91
2023/03/18 14:42:47;;;;;;;4.63;1.97;;;;;;;;;;5032032;28;20258;-91
2023/03/18 14:45:19;;;;;;;1.80;1.53;;;;;;;;;;5030486;28;20659;-91
2023/03/18 14:47:49;;;;;;;1.97;0.90;;;;;;;;;;5040713;28;20207;-90
2023/03/18 14:50:20;;;;;;;1.53;0.63;;;;;;;;;;5031726;28;20581;-90
2023/03/18 14:52:52;;;;;;;3.20;0.87;;;;;;;;;;5030423;28;20281;-90
2023/03/18 14:55:21;;;;;;;0.73;0.70;;;;;;;;;;5043403;28;20236;-91
2023/03/18 14:57:49;;;;;;;2.63;0.80;;;;;;;;;;5044113;28;20205;-91
2023/03/18 15:00:17;;;;;;;2.50;0.90;;;;;;;;;;5044964;28;20206;-91
2023/03/18 15:02:45;;;;;;;1.03;0.70;;;;;;;;;;5045783;28;20608;-90